Time;durP1;ratioP1;P1;durP2;ratioP2;P2;SDS_P1;SDS_P2;PMS_P1;PMS_P2;Temp;Humidity;BMP_temperature;BMP_pressure;BME280_temperature;BME280_humidity;BME280_pressure;Samples;Min_cycle;Max_cycle;Signal;HPM_P1;HPM_P2
2022/10/15 00:00:09;;;;;;;0.13;0.10;;;;;13.10;93396.00;;;;7392494;19;20152;-75
2022/10/15 00:02:39;;;;;;;0.32;0.30;;;;;13.10;93394.00;;;;7394735;19;20600;-76
2022/10/15 00:05:07;;;;;;;0.10;0.10;;;;;13.00;93396.00;;;;7389537;19;20620;-76
2022/10/15 00:07:40;;;;;;;0.15;0.08;;;;;13.10;93395.00;;;;7393494;19;20132;-74
2022/10/15 00:10:08;;;;;;;0.68;0.10;;;;;13.10;93393.00;;;;7391141;19;20648;-76
2022/10/15 00:12:36;;;;;;;0.10;0.00;;;;;13.10;93397.00;;;;7393352;19;20172;-76
2022/10/15 00:15:10;;;;;;;0.00;0.00;;;;;13.40;93401.00;;;;7392601;19;20200;-77
2022/10/15 00:17:38;;;;;;;0.30;0.08;;;;;13.20;93392.00;;;;7392562;19;20144;-77
2022/10/15 00:20:09;;;;;;;0.95;0.10;;;;;13.30;93400.00;;;;7388653;19;20143;-76
2022/10/15 00:22:47;;;;;;;0.43;0.10;;;;;13.30;93407.00;;;;7393810;19;20620;-75
2022/10/15 00:25:14;;;;;;;0.00;0.00;;;;;13.30;93403.00;;;;7390667;19;20145;-75
2022/10/15 00:27:42;;;;;;;0.22;0.10;;;;;13.30;93404.00;;;;7391518;19;20502;-76
2022/10/15 00:30:15;;;;;;;0.60;0.10;;;;;13.20;93401.00;;;;7392413;19;20159;-76
2022/10/15 00:32:49;;;;;;;2.00;0.20;;;;;13.30;93397.00;;;;7398185;19;20478;-76
2022/10/15 00:35:30;;;;;;;0.45;0.20;;;;;13.40;93404.00;;;;7396842;19;20163;-77
2022/10/15 00:37:57;;;;;;;1.75;0.05;;;;;13.40;93407.00;;;;7399783;19;20582;-76
2022/10/15 00:40:32;;;;;;;0.70;0.10;;;;;13.40;93403.00;;;;7398165;19;20148;-76
2022/10/15 00:43:00;;;;;;;0.35;0.08;;;;;13.40;93397.00;;;;7399355;19;20152;-76
2022/10/15 00:45:40;;;;;;;0.10;0.10;;;;;13.40;93395.00;;;;7398893;19;20188;-77
2022/10/15 00:48:13;;;;;;;0.55;0.30;;;;;13.40;93396.00;;;;7400947;19;20151;-76
2022/10/15 00:50:41;;;;;;;1.80;0.30;;;;;13.50;93399.00;;;;7397392;19;20196;-76
2022/10/15 00:53:14;;;;;;;1.77;0.08;;;;;13.50;93392.00;;;;7399240;19;20512;-75
2022/10/15 00:55:49;;;;;;;1.95;0.17;;;;;13.40;93391.00;;;;7398924;19;20129;-77
2022/10/15 00:58:26;;;;;;;0.28;0.10;;;;;13.60;93394.00;;;;7398662;19;20176;-76
2022/10/15 01:01:01;;;;;;;0.20;0.17;;;;;13.40;93399.00;;;;7398337;19;20160;-78
2022/10/15 01:03:28;;;;;;;1.30;0.20;;;;;13.40;93396.00;;;;7400884;19;20140;-77
2022/10/15 01:05:56;;;;;;;0.10;0.10;;;;;13.40;93392.00;;;;7399268;19;20500;-81
2022/10/15 01:08:29;;;;;;;1.75;0.10;;;;;13.60;93393.00;;;;7395388;19;20133;-79
2022/10/15 01:11:06;;;;;;;0.47;0.15;;;;;13.50;93392.00;;;;7400719;19;20167;-80
2022/10/15 01:14:13;;;;;;;0.35;0.10;;;;;13.50;93390.00;;;;7397204;19;20129;-77
2022/10/15 01:16:54;;;;;;;0.70;0.20;;;;;13.40;93390.00;;;;7397127;19;20505;-79
2022/10/15 01:20:05;;;;;;;1.55;0.30;;;;;13.40;93387.00;;;;7396927;19;20192;-79
2022/10/15 01:22:59;;;;;;;1.55;0.20;;;;;13.40;93385.00;;;;7401055;19;20603;-79
2022/10/15 01:26:14;;;;;;;0.28;0.10;;;;;13.60;93378.00;;;;7401026;19;20172;-77
2022/10/15 01:28:56;;;;;;;0.50;0.20;;;;;13.50;93381.00;;;;7398356;19;20136;-77
2022/10/15 01:31:42;;;;;;;0.30;0.10;;;;;13.60;93384.00;;;;7399757;19;20527;-79
2022/10/15 01:34:58;;;;;;;0.20;0.20;;;;;13.30;93387.00;;;;7396448;19;20179;-78
2022/10/15 01:38:07;;;;;;;0.65;0.10;;;;;13.60;93373.00;;;;7398532;19;20149;-78
2022/10/15 01:40:46;;;;;;;0.40;0.30;;;;;13.70;93373.00;;;;7398271;19;20568;-77
2022/10/15 01:43:38;;;;;;;0.22;0.20;;;;;13.60;93371.00;;;;7396431;19;20129;-79
2022/10/15 01:46:17;;;;;;;0.10;0.10;;;;;13.70;93369.00;;;;7397705;19;20129;-77
2022/10/15 01:49:02;;;;;;;0.25;0.10;;;;;13.60;93365.00;;;;7395320;19;20125;-78
2022/10/15 01:51:33;;;;;;;0.10;0.10;;;;;13.70;93371.00;;;;7396360;19;20152;-79
2022/10/15 01:54:16;;;;;;;1.67;0.20;;;;;13.80;93368.00;;;;7395569;19;20168;-80
2022/10/15 01:56:48;;;;;;;0.93;0.30;;;;;13.80;93370.00;;;;7394503;19;20133;-75
2022/10/15 01:59:26;;;;;;;0.13;0.10;;;;;13.90;93372.00;;;;7397426;19;20184;-78
2022/10/15 02:01:58;;;;;;;3.30;0.17;;;;;13.90;93372.00;;;;7398729;19;20148;-79
2022/10/15 02:04:33;;;;;;;0.73;0.20;;;;;13.90;93366.00;;;;7394532;19;20230;-78
2022/10/15 02:07:20;;;;;;;2.60;0.20;;;;;13.80;93374.00;;;;7394522;19;20227;-79
2022/10/15 02:10:04;;;;;;;0.08;0.00;;;;;13.80;93370.00;;;;7398352;19;20168;-77
2022/10/15 02:12:58;;;;;;;0.17;0.10;;;;;13.80;93372.00;;;;7397701;19;20150;-78
2022/10/15 02:15:52;;;;;;;0.30;0.15;;;;;13.80;93369.00;;;;7396681;19;20145;-77
2022/10/15 02:18:40;;;;;;;2.35;0.20;;;;;13.80;93371.00;;;;7394519;19;20157;-79
2022/10/15 02:21:40;;;;;;;0.60;0.10;;;;;13.90;93370.00;;;;7395761;19;20160;-78
2022/10/15 02:24:13;;;;;;;0.30;0.20;;;;;13.90;93377.00;;;;7392568;19;20151;-79
2022/10/15 02:26:50;;;;;;;0.32;0.10;;;;;14.00;93380.00;;;;7395214;19;20136;-79
2022/10/15 02:29:21;;;;;;;0.57;0.05;;;;;13.90;93380.00;;;;7393266;19;20168;-80
2022/10/15 02:32:10;;;;;;;0.70;0.20;;;;;14.00;93381.00;;;;7393496;19;20185;-79
2022/10/15 02:34:46;;;;;;;1.15;0.10;;;;;13.90;93386.00;;;;7394426;19;20144;-79
2022/10/15 02:37:23;;;;;;;0.52;0.05;;;;;14.00;93386.00;;;;7394077;19;20120;-78
2022/10/15 02:39:51;;;;;;;1.20;0.10;;;;;14.00;93378.00;;;;7395696;19;20233;-77
2022/10/15 02:42:18;;;;;;;2.08;0.20;;;;;14.00;93378.00;;;;7392839;19;20220;-78
2022/10/15 02:45:00;;;;;;;0.45;0.20;;;;;14.00;93379.00;;;;7396277;19;20152;-81
2022/10/15 02:47:28;;;;;;;0.20;0.08;;;;;14.10;93379.00;;;;7392736;19;20148;-80
2022/10/15 02:49:58;;;;;;;1.05;0.10;;;;;14.10;93384.00;;;;7392710;19;20236;-80
2022/10/15 02:52:36;;;;;;;0.05;0.05;;;;;14.10;93383.00;;;;7392464;19;20520;-78
2022/10/15 02:55:06;;;;;;;0.10;0.10;;;;;14.00;93387.00;;;;7392282;19;20155;-77
2022/10/15 02:57:34;;;;;;;0.30;0.22;;;;;14.00;93386.00;;;;7394914;19;20216;-77
2022/10/15 03:00:08;;;;;;;1.00;0.28;;;;;14.00;93385.00;;;;7392535;19;20497;-79
2022/10/15 03:02:36;;;;;;;0.10;0.10;;;;;13.90;93387.00;;;;7395108;19;20224;-76
2022/10/15 03:05:04;;;;;;;0.10;0.10;;;;;13.90;93390.00;;;;7394856;19;20161;-78
2022/10/15 03:07:40;;;;;;;0.47;0.10;;;;;14.00;93391.00;;;;7390821;19;20143;-77
2022/10/15 03:10:07;;;;;;;0.10;0.10;;;;;13.90;93378.00;;;;7394808;19;20616;-76
2022/10/15 03:12:42;;;;;;;0.10;0.10;;;;;13.90;93384.00;;;;7390931;19;20140;-75
2022/10/15 03:15:16;;;;;;;2.75;0.10;;;;;13.90;93387.00;;;;7393715;19;20509;-77
2022/10/15 03:17:43;;;;;;;0.05;0.05;;;;;13.90;93381.00;;;;7391558;19;20128;-79
2022/10/15 03:20:10;;;;;;;0.85;0.10;;;;;13.90;93387.00;;;;7392551;19;20169;-78
2022/10/15 03:22:52;;;;;;;0.00;0.00;;;;;13.90;93393.00;;;;7391372;19;20148;-77
2022/10/15 03:25:22;;;;;;;0.00;0.00;;;;;13.90;93396.00;;;;7394523;19;20149;-76
2022/10/15 03:27:55;;;;;;;0.90;0.20;;;;;13.90;93389.00;;;;7393197;19;20133;-81
2022/10/15 03:30:29;;;;;;;0.52;0.20;;;;;13.80;93392.00;;;;7387792;19;20748;-76
2022/10/15 03:33:06;;;;;;;1.50;0.10;;;;;13.80;93404.00;;;;7390626;19;20659;-77
2022/10/15 03:35:42;;;;;;;0.10;0.10;;;;;13.80;93417.00;;;;7392234;19;20125;-77
2022/10/15 03:38:10;;;;;;;0.20;0.10;;;;;13.70;93410.00;;;;7394268;19;20616;-75
2022/10/15 03:40:37;;;;;;;1.38;0.15;;;;;13.60;93388.00;;;;7393164;19;20634;-77
2022/10/15 03:43:12;;;;;;;0.10;0.10;;;;;13.70;93397.00;;;;7393475;19;20165;-75
2022/10/15 03:45:39;;;;;;;0.28;0.28;;;;;13.60;93387.00;;;;7392862;19;20156;-77
2022/10/15 03:48:07;;;;;;;0.15;0.15;;;;;13.60;93395.00;;;;7393865;19;20149;-75
2022/10/15 03:50:40;;;;;;;0.20;0.20;;;;;13.60;93402.00;;;;7390231;19;20128;-77
2022/10/15 03:53:12;;;;;;;0.15;0.10;;;;;13.50;93399.00;;;;7390825;19;20142;-78
2022/10/15 03:55:40;;;;;;;0.40;0.40;;;;;13.50;93411.00;;;;7393457;19;20155;-77
2022/10/15 03:58:16;;;;;;;3.28;0.47;;;;;13.60;93413.00;;;;7389858;19;20156;-75
2022/10/15 04:00:44;;;;;;;1.50;0.20;;;;;13.60;93418.00;;;;7388742;19;20477;-78
2022/10/15 04:03:12;;;;;;;0.30;0.30;;;;;13.50;93415.00;;;;7393402;19;20133;-78
2022/10/15 04:05:53;;;;;;;0.90;0.32;;;;;13.60;93418.00;;;;7396641;19;20128;-77
2022/10/15 04:08:22;;;;;;;0.45;0.28;;;;;13.50;93422.00;;;;7398795;19;20155;-75
2022/10/15 04:10:58;;;;;;;0.30;0.30;;;;;13.60;93413.00;;;;7400833;19;20579;-75
2022/10/15 04:13:26;;;;;;;0.30;0.30;;;;;13.50;93416.00;;;;7396695;19;20150;-77
2022/10/15 04:15:54;;;;;;;0.55;0.30;;;;;13.50;93428.00;;;;7399765;19;20153;-76
2022/10/15 04:18:28;;;;;;;0.80;0.20;;;;;13.60;93420.00;;;;7399877;19;20129;-77
2022/10/15 04:21:00;;;;;;;1.02;0.35;;;;;13.50;93421.00;;;;7398461;19;20541;-77
2022/10/15 04:23:27;;;;;;;0.35;0.20;;;;;13.40;93427.00;;;;7400008;19;20143;-76
2022/10/15 04:26:01;;;;;;;0.82;0.20;;;;;13.60;93430.00;;;;7401379;19;20133;-76
2022/10/15 04:28:34;;;;;;;3.25;0.43;;;;;13.40;93441.00;;;;7397613;19;20144;-77
2022/10/15 04:31:04;;;;;;;0.40;0.40;;;;;13.50;93445.00;;;;7396931;19;20159;-77
2022/10/15 04:33:54;;;;;;;0.43;0.38;;;;;13.50;93448.00;;;;7398176;19;20541;-77
2022/10/15 04:36:21;;;;;;;2.33;0.30;;;;;13.50;93454.00;;;;7397419;19;20136;-75
2022/10/15 04:38:58;;;;;;;0.80;0.32;;;;;13.50;93444.00;;;;7399267;19;20149;-83
2022/10/15 04:41:26;;;;;;;0.98;0.40;;;;;13.50;93451.00;;;;7398137;19;20490;-78
2022/10/15 04:43:57;;;;;;;0.55;0.20;;;;;13.60;93445.00;;;;7399092;19;20137;-78
2022/10/15 04:46:33;;;;;;;1.55;0.30;;;;;13.50;93443.00;;;;7399603;19;20591;-77
2022/10/15 04:49:00;;;;;;;0.70;0.30;;;;;13.50;93435.00;;;;7396012;19;20155;-75
2022/10/15 04:51:28;;;;;;;0.38;0.38;;;;;13.50;93441.00;;;;7396628;19;20853;-78
2022/10/15 04:54:02;;;;;;;5.03;0.30;;;;;13.40;93445.00;;;;7398646;19;20644;-78
2022/10/15 04:56:32;;;;;;;0.30;0.30;;;;;13.40;93441.00;;;;7399925;19;20159;-78
2022/10/15 04:58:59;;;;;;;0.57;0.35;;;;;13.40;93450.00;;;;7400271;19;20142;-77
2022/10/15 05:01:36;;;;;;;2.85;0.40;;;;;13.40;93450.00;;;;7397783;19;20149;-77
2022/10/15 05:04:03;;;;;;;0.55;0.45;;;;;13.30;93462.00;;;;7397228;19;20733;-76
2022/10/15 05:06:32;;;;;;;2.90;0.70;;;;;13.30;93461.00;;;;7397369;19;20163;-74
2022/10/15 05:09:06;;;;;;;0.60;0.60;;;;;13.30;93451.00;;;;7398529;19;20170;-74
2022/10/15 05:11:37;;;;;;;1.08;0.40;;;;;13.30;93456.00;;;;7395357;19;20139;-77
2022/10/15 05:14:05;;;;;;;0.43;0.43;;;;;13.20;93461.00;;;;7396980;19;20145;-75
2022/10/15 05:16:39;;;;;;;0.30;0.30;;;;;13.30;93465.00;;;;7393442;19;20148;-77
2022/10/15 05:19:10;;;;;;;4.00;0.73;;;;;13.30;93478.00;;;;7396265;19;20149;-76
2022/10/15 05:21:38;;;;;;;0.40;0.40;;;;;13.30;93483.00;;;;7397627;19;20145;-76
2022/10/15 05:24:12;;;;;;;0.75;0.47;;;;;13.30;93478.00;;;;7398934;19;20159;-75
2022/10/15 05:26:39;;;;;;;0.32;0.32;;;;;13.30;93480.00;;;;7393494;19;20137;-77
2022/10/15 05:29:09;;;;;;;0.40;0.40;;;;;13.30;93480.00;;;;7399077;19;20604;-78
2022/10/15 05:31:51;;;;;;;2.13;0.47;;;;;13.20;93477.00;;;;7391679;19;20142;-78
2022/10/15 05:34:29;;;;;;;0.80;0.50;;;;;13.20;93484.00;;;;7394012;19;20155;-77
2022/10/15 05:37:03;;;;;;;0.70;0.52;;;;;13.10;93478.00;;;;7397525;19;20248;-77
2022/10/15 05:39:32;;;;;;;1.48;0.80;;;;;13.10;93479.00;;;;7395589;19;20141;-77
2022/10/15 05:42:00;;;;;;;1.00;0.65;;;;;13.10;93482.00;;;;7396578;19;20481;-78
2022/10/15 05:44:36;;;;;;;0.70;0.70;;;;;13.10;93474.00;;;;7398374;19;20137;-78
2022/10/15 05:47:11;;;;;;;0.90;0.60;;;;;13.10;93480.00;;;;7395921;19;20204;-80
2022/10/15 05:49:43;;;;;;;0.80;0.70;;;;;13.10;93479.00;;;;7398686;19;20145;-78
2022/10/15 05:52:17;;;;;;;0.73;0.70;;;;;13.00;93479.00;;;;7396348;19;20194;-75
2022/10/15 05:54:48;;;;;;;0.90;0.77;;;;;13.10;93480.00;;;;7396524;19;20632;-75
2022/10/15 05:57:22;;;;;;;1.08;0.60;;;;;12.90;93479.00;;;;7395658;19;20533;-77
2022/10/15 05:59:56;;;;;;;2.20;0.90;;;;;13.00;93487.00;;;;7392273;19;20510;-76
2022/10/15 06:02:24;;;;;;;1.95;0.90;;;;;12.90;93489.00;;;;7391824;19;20148;-74
2022/10/15 06:04:52;;;;;;;1.67;0.82;;;;;12.90;93481.00;;;;7393585;19;20587;-75
2022/10/15 06:07:26;;;;;;;2.20;0.88;;;;;13.00;93505.00;;;;7394000;19;20156;-75
2022/10/15 06:09:54;;;;;;;1.25;0.90;;;;;12.90;93507.00;;;;7395688;19;20125;-75
2022/10/15 06:12:21;;;;;;;4.20;0.98;;;;;12.80;93511.00;;;;7390839;19;20152;-76
2022/10/15 06:14:55;;;;;;;1.95;1.00;;;;;12.90;93507.00;;;;7395495;19;20184;-75
2022/10/15 06:17:23;;;;;;;2.35;1.10;;;;;12.80;93501.00;;;;7395653;19;20164;-76
2022/10/15 06:19:50;;;;;;;0.95;0.90;;;;;12.90;93502.00;;;;7392586;19;20633;-76
2022/10/15 06:22:24;;;;;;;1.08;0.82;;;;;13.00;93510.00;;;;7393405;19;20552;-77
2022/10/15 06:24:56;;;;;;;3.60;1.27;;;;;12.90;93514.00;;;;7394426;19;20556;-75
2022/10/15 06:27:24;;;;;;;2.15;1.10;;;;;12.70;93522.00;;;;7391929;19;20157;-75
2022/10/15 06:29:58;;;;;;;1.95;1.08;;;;;12.70;93524.00;;;;7390961;19;20132;-77
2022/10/15 06:32:53;;;;;;;2.20;1.23;;;;;12.70;93528.00;;;;7391710;19;20494;-75
2022/10/15 06:35:34;;;;;;;1.13;0.85;;;;;12.70;93542.00;;;;7393696;19;20155;-77
2022/10/15 06:38:05;;;;;;;1.60;1.23;;;;;12.60;93551.00;;;;7394170;19;20624;-75
2022/10/15 06:40:39;;;;;;;2.45;1.15;;;;;12.60;93549.00;;;;7392918;19;20132;-75
2022/10/15 06:43:10;;;;;;;3.72;1.30;;;;;12.50;93544.00;;;;7393114;19;20140;-75
2022/10/15 06:45:41;;;;;;;2.53;1.30;;;;;12.60;93548.00;;;;7392330;19;20129;-75
2022/10/15 06:48:15;;;;;;;3.70;1.00;;;;;12.50;93556.00;;;;7387634;19;20685;-76
2022/10/15 06:50:45;;;;;;;2.00;1.00;;;;;12.70;93563.00;;;;7388708;19;20136;-78
2022/10/15 06:53:18;;;;;;;1.65;0.90;;;;;12.60;93566.00;;;;7389774;19;20135;-76
2022/10/15 06:56:00;;;;;;;1.10;1.00;;;;;12.70;93558.00;;;;7389391;19;20224;-75
2022/10/15 06:58:27;;;;;;;2.92;1.17;;;;;12.70;93570.00;;;;7389088;19;20159;-78
2022/10/15 07:01:05;;;;;;;4.60;0.88;;;;;12.90;93568.00;;;;7391691;19;20587;-78
2022/10/15 07:03:33;;;;;;;2.05;1.08;;;;;12.90;93574.00;;;;7387446;19;20152;-77
2022/10/15 07:06:05;;;;;;;1.98;0.85;;;;;13.00;93575.00;;;;7387874;19;20152;-77
2022/10/15 07:08:39;;;;;;;2.47;0.90;;;;;13.00;93580.00;;;;7388144;19;21194;-77
2022/10/15 07:11:08;;;;;;;1.17;1.02;;;;;13.00;93584.00;;;;7386293;19;20132;-77
2022/10/15 07:13:36;;;;;;;2.25;1.00;;;;;13.10;93581.00;;;;7384758;19;20148;-77
2022/10/15 07:16:11;;;;;;;1.23;0.88;;;;;13.30;93590.00;;;;7385999;19;20129;-78
2022/10/15 07:18:39;;;;;;;2.28;0.77;;;;;13.30;93581.00;;;;7387179;19;20499;-77
2022/10/15 07:21:08;;;;;;;3.20;0.73;;;;;13.30;93598.00;;;;7388067;19;20141;-76
2022/10/15 07:23:42;;;;;;;0.93;0.85;;;;;13.30;93590.00;;;;7390878;19;20195;-76
2022/10/15 07:26:11;;;;;;;0.70;0.70;;;;;13.30;93594.00;;;;7392567;19;20144;-76
2022/10/15 07:28:38;;;;;;;0.70;0.70;;;;;13.40;93588.00;;;;7391091;19;20140;-76
2022/10/15 07:31:12;;;;;;;2.85;0.90;;;;;13.40;93596.00;;;;7388266;19;20156;-78
2022/10/15 07:33:47;;;;;;;1.55;0.98;;;;;13.40;93593.00;;;;7388262;19;20251;-76
2022/10/15 07:36:21;;;;;;;1.58;0.68;;;;;13.30;93589.00;;;;7390255;19;20144;-77
2022/10/15 07:38:49;;;;;;;0.60;0.50;;;;;13.40;93600.00;;;;7389697;19;20156;-77
2022/10/15 07:41:17;;;;;;;1.67;0.85;;;;;13.40;93599.00;;;;7389640;19;20142;-76
2022/10/15 07:43:52;;;;;;;1.13;0.68;;;;;13.40;93603.00;;;;7397698;19;20133;-76
2022/10/15 07:46:22;;;;;;;1.23;0.80;;;;;13.50;93596.00;;;;7391917;19;20156;-77
2022/10/15 07:48:53;;;;;;;0.98;0.55;;;;;13.50;93599.00;;;;7392814;19;20141;-76
2022/10/15 07:51:27;;;;;;;0.52;0.50;;;;;13.40;93613.00;;;;7392539;19;20247;-76
2022/10/15 07:54:00;;;;;;;0.50;0.50;;;;;13.50;93610.00;;;;7392843;19;20212;-75
2022/10/15 07:56:28;;;;;;;1.02;0.68;;;;;13.60;93613.00;;;;7394141;19;20153;-76
2022/10/15 07:59:02;;;;;;;0.40;0.40;;;;;13.50;93619.00;;;;7394435;19;20131;-76
2022/10/15 08:01:34;;;;;;;0.57;0.38;;;;;13.60;93609.00;;;;7393300;19;20181;-75
2022/10/15 08:04:04;;;;;;;1.13;0.50;;;;;13.80;93607.00;;;;7392303;19;20230;-75
2022/10/15 08:06:37;;;;;;;0.60;0.60;;;;;14.00;93602.00;;;;7391980;19;20129;-75
2022/10/15 08:09:14;;;;;;;0.35;0.30;;;;;14.10;93616.00;;;;7392647;19;20174;-74
2022/10/15 08:11:51;;;;;;;3.00;0.90;;;;;14.30;93616.00;;;;7393783;19;20145;-77
2022/10/15 08:14:18;;;;;;;3.17;0.73;;;;;14.30;93621.00;;;;7387233;19;20143;-75
2022/10/15 08:16:46;;;;;;;0.88;0.50;;;;;14.30;93617.00;;;;7397621;19;20644;-75
2022/10/15 08:19:20;;;;;;;0.50;0.50;;;;;14.30;93619.00;;;;7398420;19;20164;-75
2022/10/15 08:21:47;;;;;;;0.95;0.63;;;;;14.30;93617.00;;;;7399171;19;20145;-75
2022/10/15 08:24:15;;;;;;;2.75;0.40;;;;;14.20;93621.00;;;;7397484;19;20181;-75
2022/10/15 08:26:57;;;;;;;6.03;1.05;;;;;14.20;93625.00;;;;7397747;19;20160;-75
2022/10/15 08:29:25;;;;;;;0.43;0.38;;;;;14.40;93616.00;;;;7395295;19;20139;-74
2022/10/15 08:31:57;;;;;;;0.57;0.40;;;;;14.40;93628.00;;;;7396333;19;20165;-74
2022/10/15 08:34:39;;;;;;;0.35;0.35;;;;;14.30;93624.00;;;;7390253;19;20531;-76
2022/10/15 08:37:07;;;;;;;0.52;0.30;;;;;14.20;93630.00;;;;7394852;19;20220;-76
2022/10/15 08:39:41;;;;;;;0.30;0.20;;;;;14.20;93630.00;;;;7395229;19;20136;-75
2022/10/15 08:42:20;;;;;;;1.65;0.40;;;;;14.20;93639.00;;;;7395732;19;20152;-75
2022/10/15 08:44:58;;;;;;;0.38;0.38;;;;;14.10;93645.00;;;;7396124;19;20523;-74
2022/10/15 08:47:37;;;;;;;0.38;0.28;;;;;14.20;93655.00;;;;7396043;19;20132;-77
2022/10/15 08:50:39;;;;;;;0.40;0.30;;;;;14.00;93655.00;;;;7397965;19;20136;-75
2022/10/15 08:53:12;;;;;;;0.30;0.30;;;;;14.00;93653.00;;;;7394263;19;20160;-77
2022/10/15 08:55:52;;;;;;;1.98;0.30;;;;;14.10;93659.00;;;;7397674;19;20152;-78
2022/10/15 08:58:40;;;;;;;0.80;0.30;;;;;14.10;93650.00;;;;7401519;19;20144;-76
2022/10/15 09:01:25;;;;;;;0.55;0.20;;;;;14.00;93659.00;;;;7399958;19;20143;-77
2022/10/15 09:03:55;;;;;;;0.32;0.30;;;;;14.10;93667.00;;;;7398764;19;20157;-76
2022/10/15 09:06:37;;;;;;;0.40;0.32;;;;;14.10;93655.00;;;;7398836;19;20137;-76
2022/10/15 09:09:13;;;;;;;0.30;0.30;;;;;14.10;93653.00;;;;7398578;19;20612;-76
2022/10/15 09:12:08;;;;;;;0.45;0.45;;;;;14.10;93656.00;;;;7400049;19;20612;-76
2022/10/15 09:14:40;;;;;;;0.17;0.13;;;;;14.20;93664.00;;;;7394418;19;20144;-75
2022/10/15 09:17:25;;;;;;;0.30;0.30;;;;;14.20;93673.00;;;;7397538;19;20141;-77
2022/10/15 09:20:02;;;;;;;1.98;0.50;;;;;14.20;93660.00;;;;7400974;19;20128;-78
2022/10/15 09:22:37;;;;;;;0.15;0.15;;;;;14.20;93674.00;;;;7398591;19;20159;-77
2022/10/15 09:25:35;;;;;;;0.22;0.22;;;;;14.30;93677.00;;;;7395973;19;20212;-76
2022/10/15 09:28:13;;;;;;;0.30;0.30;;;;;14.40;93664.00;;;;7397358;19;20600;-77
2022/10/15 09:30:56;;;;;;;2.83;0.20;;;;;14.50;93681.00;;;;7395889;19;21961;-77
2022/10/15 09:33:52;;;;;;;0.20;0.20;;;;;14.40;93677.00;;;;7396457;19;20196;-77
2022/10/15 09:36:51;;;;;;;0.20;0.20;;;;;14.60;93665.00;;;;7396435;19;20220;-77
2022/10/15 09:39:53;;;;;;;0.20;0.20;;;;;14.90;93668.00;;;;7397812;19;20155;-79
2022/10/15 09:42:37;;;;;;;0.22;0.22;;;;;14.90;93678.00;;;;7394297;19;20177;-76
2022/10/15 09:45:14;;;;;;;0.20;0.20;;;;;15.00;93668.00;;;;7398276;19;20156;-76
2022/10/15 09:47:49;;;;;;;0.57;0.20;;;;;15.10;93666.00;;;;7396712;19;20201;-77
2022/10/15 09:50:24;;;;;;;0.65;0.43;;;;;15.50;93660.00;;;;7387747;19;20152;-75
2022/10/15 09:53:30;;;;;;;0.40;0.30;;;;;15.80;93652.00;;;;7392637;19;20193;-74
2022/10/15 09:56:07;;;;;;;0.13;0.13;;;;;15.90;93674.00;;;;7392397;19;20148;-74
2022/10/15 09:58:51;;;;;;;0.30;0.20;;;;;15.80;93665.00;;;;7388501;19;20140;-75
2022/10/15 10:01:32;;;;;;;0.43;0.40;;;;;16.00;93674.00;;;;7391010;19;20156;-75
2022/10/15 10:04:19;;;;;;;0.90;0.40;;;;;15.80;93676.00;;;;7388790;19;20129;-75
2022/10/15 10:06:58;;;;;;;3.90;0.30;;;;;15.80;93681.00;;;;7392085;19;20602;-75
2022/10/15 10:09:46;;;;;;;0.32;0.30;;;;;15.70;93685.00;;;;7390812;19;20204;-75
2022/10/15 10:12:42;;;;;;;2.75;0.50;;;;;15.50;93687.00;;;;7387364;19;20192;-74
2022/10/15 10:15:25;;;;;;;0.73;0.30;;;;;15.30;93692.00;;;;7389963;19;20145;-76
2022/10/15 10:17:59;;;;;;;3.25;0.40;;;;;15.10;93698.00;;;;7391839;19;20159;-75
2022/10/15 10:20:31;;;;;;;0.32;0.32;;;;;15.10;93698.00;;;;7392336;19;20604;-76
2022/10/15 10:23:02;;;;;;;1.85;0.35;;;;;15.10;93703.00;;;;7385691;19;20152;-74
2022/10/15 10:25:43;;;;;;;0.40;0.40;;;;;15.00;93699.00;;;;7391567;19;20152;-74
2022/10/15 10:28:13;;;;;;;2.03;0.40;;;;;14.90;93699.00;;;;7389992;19;20153;-74
2022/10/15 10:30:52;;;;;;;2.88;0.45;;;;;14.90;93711.00;;;;7388434;19;20133;-75
2022/10/15 10:33:51;;;;;;;0.73;0.47;;;;;14.70;93713.00;;;;7386571;19;20817;-75
2022/10/15 10:36:32;;;;;;;0.38;0.32;;;;;14.70;93719.00;;;;7390626;19;20148;-76
2022/10/15 10:39:19;;;;;;;1.88;0.30;;;;;14.70;93714.00;;;;7390981;19;20308;-75
2022/10/15 10:41:59;;;;;;;1.75;0.30;;;;;14.60;93724.00;;;;7392357;19;20171;-74
2022/10/15 10:44:32;;;;;;;1.92;0.45;;;;;14.60;93719.00;;;;7387139;19;20133;-76
2022/10/15 10:47:06;;;;;;;1.17;0.55;;;;;14.70;93719.00;;;;7393876;19;20821;-75
2022/10/15 10:49:41;;;;;;;1.02;0.40;;;;;14.80;93710.00;;;;7393013;19;20572;-76
2022/10/15 10:52:25;;;;;;;3.92;0.82;;;;;14.70;93703.00;;;;7387863;19;20168;-75
2022/10/15 10:54:59;;;;;;;0.70;0.70;;;;;14.80;93709.00;;;;7388627;19;20548;-75
2022/10/15 10:57:55;;;;;;;1.88;0.80;;;;;14.80;93709.00;;;;7387461;19;20140;-75
2022/10/15 11:00:38;;;;;;;5.25;0.77;;;;;15.00;93698.00;;;;7388210;19;20183;-76
2022/10/15 11:03:29;;;;;;;1.92;0.80;;;;;14.90;93690.00;;;;7386354;19;20157;-78
2022/10/15 11:06:28;;;;;;;0.60;0.55;;;;;15.20;93690.00;;;;7387348;19;20172;-76
2022/10/15 11:09:47;;;;;;;2.45;0.73;;;;;15.60;93695.00;;;;7386219;19;20592;-76
2022/10/15 11:12:41;;;;;;;4.13;1.02;;;;;16.00;93693.00;;;;7384282;19;20554;-75
2022/10/15 11:15:37;;;;;;;1.95;0.90;;;;;16.60;93674.00;;;;7383586;19;20184;-75
2022/10/15 11:18:28;;;;;;;1.23;0.70;;;;;16.60;93667.00;;;;7387756;19;20152;-76
2022/10/15 11:21:24;;;;;;;3.85;1.08;;;;;17.20;93660.00;;;;7388826;19;20192;-76
2022/10/15 11:24:24;;;;;;;2.67;0.80;;;;;17.30;93657.00;;;;7386367;19;20160;-75
2022/10/15 11:27:44;;;;;;;1.13;0.70;;;;;17.80;93650.00;;;;7390126;19;20151;-75
2022/10/15 11:30:30;;;;;;;1.55;0.75;;;;;17.80;93665.00;;;;7388510;19;20161;-76
2022/10/15 11:33:27;;;;;;;1.58;0.60;;;;;17.30;93656.00;;;;7388064;19;20577;-75
2022/10/15 11:36:39;;;;;;;0.82;0.55;;;;;17.00;93655.00;;;;7388960;19;20608;-76
2022/10/15 11:39:29;;;;;;;2.17;0.73;;;;;16.50;93660.00;;;;7386057;19;20137;-77
2022/10/15 11:42:07;;;;;;;1.13;0.80;;;;;16.20;93649.00;;;;7387661;19;20149;-76
2022/10/15 11:45:02;;;;;;;1.98;0.88;;;;;16.00;93655.00;;;;7390015;19;20141;-78
2022/10/15 11:48:04;;;;;;;2.13;0.90;;;;;15.90;93644.00;;;;7390108;19;20153;-77
2022/10/15 11:50:56;;;;;;;2.33;0.90;;;;;15.70;93645.00;;;;7388908;19;20145;-76
2022/10/15 11:54:12;;;;;;;1.17;0.68;;;;;15.60;93645.00;;;;7390104;19;20164;-77
2022/10/15 11:56:55;;;;;;;2.38;0.77;;;;;15.30;93639.00;;;;7388362;19;20137;-77
2022/10/15 11:59:26;;;;;;;2.05;0.80;;;;;15.30;93649.00;;;;7389414;19;20172;-76
2022/10/15 12:02:14;;;;;;;2.50;0.70;;;;;15.30;93635.00;;;;7389668;19;21364;-77
2022/10/15 12:04:45;;;;;;;1.80;0.90;;;;;15.20;93642.00;;;;7389839;19;20156;-76
2022/10/15 12:07:29;;;;;;;1.25;0.90;;;;;15.20;93648.00;;;;7383835;19;20217;-76
2022/10/15 12:10:20;;;;;;;2.35;0.77;;;;;15.10;93651.00;;;;7385395;19;20136;-77
2022/10/15 12:13:10;;;;;;;0.65;0.65;;;;;14.90;93649.00;;;;7385012;19;20141;-76
2022/10/15 12:16:01;;;;;;;1.33;0.75;;;;;14.90;93650.00;;;;7383423;19;20137;-79
2022/10/15 12:18:37;;;;;;;1.10;0.63;;;;;14.80;93656.00;;;;7382799;19;20184;-77
2022/10/15 12:21:29;;;;;;;0.50;0.50;;;;;14.80;93664.00;;;;7387502;19;20136;-75
2022/10/15 12:24:24;;;;;;;0.85;0.85;;;;;14.70;93663.00;;;;7382846;19;20133;-77
2022/10/15 12:27:13;;;;;;;1.52;0.73;;;;;14.60;93664.00;;;;7387040;19;20148;-80
2022/10/15 12:30:19;;;;;;;1.25;0.90;;;;;14.60;93670.00;;;;7391444;19;20161;-78
2022/10/15 12:32:47;;;;;;;1.02;0.93;;;;;14.60;93669.00;;;;7391647;19;20161;-76
2022/10/15 12:35:37;;;;;;;5.25;1.02;;;;;14.40;93654.00;;;;7388767;19;20172;-76
2022/10/15 12:38:20;;;;;;;2.08;0.52;;;;;14.40;93652.00;;;;7390718;19;20185;-76
2022/10/15 12:41:03;;;;;;;4.30;0.90;;;;;14.50;93659.00;;;;7389802;19;20876;-76
2022/10/15 12:43:35;;;;;;;3.63;1.00;;;;;14.60;93655.00;;;;7394363;19;20219;-74
2022/10/15 12:46:11;;;;;;;1.63;0.82;;;;;14.60;93660.00;;;;7394151;19;20173;-75
2022/10/15 12:48:46;;;;;;;0.82;0.73;;;;;14.60;93654.00;;;;7392154;19;20208;-76
2022/10/15 12:51:23;;;;;;;1.08;0.70;;;;;14.60;93657.00;;;;7390764;19;20189;-76
2022/10/15 12:53:58;;;;;;;2.08;0.85;;;;;14.80;93648.00;;;;7389716;19;20216;-75
2022/10/15 12:56:39;;;;;;;1.15;0.98;;;;;14.80;93639.00;;;;7387348;19;20136;-74
2022/10/15 12:59:46;;;;;;;2.40;0.80;;;;;14.80;93650.00;;;;7394044;19;20603;-75
2022/10/15 13:02:42;;;;;;;1.05;0.63;;;;;14.70;93647.00;;;;7392121;19;20156;-76
2022/10/15 13:05:31;;;;;;;1.10;0.90;;;;;14.70;93643.00;;;;7394455;19;20593;-76
2022/10/15 13:08:12;;;;;;;2.35;1.23;;;;;14.70;93640.00;;;;7394142;19;20141;-76
2022/10/15 13:11:07;;;;;;;3.10;0.70;;;;;14.60;93640.00;;;;7390058;19;20595;-76